createdAt,value
2017-08-17T00:01:18.812Z,18.87
2017-08-17T00:03:46.394Z,18.88
2017-08-17T00:06:14.035Z,18.88
2017-08-17T00:08:41.614Z,18.86
2017-08-17T00:11:09.558Z,18.83
2017-08-17T00:13:37.154Z,18.78
2017-08-17T00:16:04.751Z,18.74
2017-08-17T00:18:32.369Z,18.71
2017-08-17T00:20:59.968Z,18.70
2017-08-17T00:23:27.714Z,18.72
2017-08-17T00:25:55.340Z,18.70
2017-08-17T00:28:22.964Z,18.69
2017-08-17T00:30:50.578Z,18.66
2017-08-17T00:33:18.310Z,18.60
2017-08-17T00:35:45.915Z,18.57
2017-08-17T00:38:13.544Z,18.53
2017-08-17T00:40:41.171Z,18.48
2017-08-17T00:43:08.825Z,18.47
2017-08-17T00:45:36.437Z,18.45
2017-08-17T00:48:04.385Z,18.44
2017-08-17T00:50:32.009Z,18.47
2017-08-17T00:52:59.618Z,18.45
2017-08-17T00:55:27.236Z,18.41
2017-08-17T00:57:54.818Z,18.38
2017-08-17T01:00:22.432Z,18.38
2017-08-17T01:02:50.025Z,18.36
2017-08-17T01:05:17.674Z,18.34
2017-08-17T01:07:45.294Z,18.38
2017-08-17T01:10:12.897Z,18.41
2017-08-17T01:12:40.512Z,18.42
2017-08-17T01:15:08.134Z,18.37
2017-08-17T01:17:35.724Z,18.31
2017-08-17T01:20:03.704Z,18.28
2017-08-17T01:22:31.320Z,18.24
2017-08-17T01:24:58.910Z,18.22
2017-08-17T01:27:26.553Z,18.19
2017-08-17T01:29:54.148Z,18.15
2017-08-17T01:32:21.763Z,18.13
2017-08-17T01:34:49.354Z,18.13
2017-08-17T01:37:16.980Z,18.12
2017-08-17T01:39:44.582Z,18.11
2017-08-17T01:42:12.193Z,18.10
2017-08-17T01:44:39.825Z,18.11
2017-08-17T01:47:19.385Z,18.15
2017-08-17T01:49:46.991Z,18.14
2017-08-17T01:52:14.979Z,18.11
2017-08-17T01:54:42.558Z,18.05
2017-08-17T01:57:10.153Z,18.03
2017-08-17T01:59:37.767Z,18.00
2017-08-17T02:02:05.350Z,17.98
2017-08-17T02:04:32.985Z,17.99
2017-08-17T02:07:00.564Z,17.95
2017-08-17T02:09:28.605Z,17.89
2017-08-17T02:11:56.199Z,17.82
2017-08-17T02:14:23.792Z,17.79
2017-08-17T02:16:51.425Z,17.77
2017-08-17T02:19:19.019Z,17.75
2017-08-17T02:21:46.808Z,17.73
2017-08-17T02:24:14.400Z,17.71
2017-08-17T02:26:42.046Z,17.71
2017-08-17T02:29:09.662Z,17.73
2017-08-17T02:31:37.291Z,17.74
2017-08-17T02:34:04.940Z,17.78
2017-08-17T02:36:32.712Z,17.82
2017-08-17T02:39:00.313Z,17.84
2017-08-17T02:41:27.943Z,17.87
2017-08-17T02:43:55.533Z,17.88
2017-08-17T02:46:23.161Z,17.85
2017-08-17T02:48:50.854Z,17.82
2017-08-17T02:51:18.663Z,17.81
2017-08-17T02:53:46.266Z,17.80
2017-08-17T02:56:13.869Z,17.82
2017-08-17T02:58:41.591Z,17.80
2017-08-17T03:01:09.388Z,17.79
2017-08-17T03:03:37.003Z,17.77
2017-08-17T03:06:04.604Z,17.79
2017-08-17T03:08:32.310Z,17.78
2017-08-17T03:10:59.939Z,17.74
2017-08-17T03:13:27.549Z,17.70
2017-08-17T03:15:55.157Z,17.66
2017-08-17T03:18:22.778Z,17.70
2017-08-17T03:20:50.357Z,17.70
2017-08-17T03:23:17.982Z,17.70
2017-08-17T03:25:45.567Z,17.68
2017-08-17T03:28:13.196Z,17.63
2017-08-17T03:30:40.813Z,17.54
2017-08-17T03:33:08.409Z,17.44
2017-08-17T03:35:36.011Z,17.39
2017-08-17T03:38:04.163Z,17.36
2017-08-17T03:40:31.880Z,17.31
2017-08-17T03:42:59.484Z,17.26
2017-08-17T03:45:27.112Z,17.23
2017-08-17T03:47:54.710Z,17.20
2017-08-17T03:50:22.347Z,17.21
2017-08-17T03:52:49.965Z,17.18
2017-08-17T03:55:17.586Z,17.13
2017-08-17T03:57:45.176Z,17.07
2017-08-17T04:00:12.820Z,17.03
2017-08-17T04:02:45.178Z,17.00
2017-08-17T04:05:13.134Z,16.98
2017-08-17T04:07:40.836Z,16.94
2017-08-17T04:10:08.463Z,16.90
2017-08-17T04:12:36.417Z,16.86
2017-08-17T04:15:04.015Z,16.84
2017-08-17T04:17:31.625Z,16.84
2017-08-17T04:19:59.256Z,16.84
2017-08-17T04:22:26.868Z,16.92
2017-08-17T04:24:54.478Z,16.94
2017-08-17T04:27:22.098Z,17.02
2017-08-17T04:29:50.065Z,17.06
2017-08-17T04:32:17.659Z,17.06
2017-08-17T04:34:45.669Z,17.05
2017-08-17T04:37:13.298Z,17.03
2017-08-17T04:39:40.894Z,17.03
2017-08-17T04:42:09.102Z,17.04
2017-08-17T04:44:36.726Z,17.06
2017-08-17T04:47:04.737Z,17.10
2017-08-17T04:49:32.334Z,17.11
2017-08-17T04:51:59.936Z,17.12
2017-08-17T04:54:27.559Z,17.13
2017-08-17T04:57:12.609Z,17.15
2017-08-17T04:59:40.548Z,17.21
2017-08-17T05:02:08.132Z,17.21
2017-08-17T05:04:35.917Z,17.22
2017-08-17T05:07:03.563Z,17.23
2017-08-17T05:09:31.178Z,17.23
2017-08-17T05:11:58.760Z,17.29
2017-08-17T05:14:26.829Z,17.37
2017-08-17T05:16:54.467Z,17.47
2017-08-17T05:19:22.069Z,17.57
2017-08-17T05:21:49.696Z,17.65
2017-08-17T05:24:17.740Z,17.73
2017-08-17T05:26:45.354Z,17.72
2017-08-17T05:29:12.983Z,17.78
2017-08-17T05:31:40.798Z,17.86
2017-08-17T05:34:08.423Z,17.91
2017-08-17T05:36:36.567Z,17.95
2017-08-17T05:39:04.347Z,17.98
2017-08-17T05:41:32.083Z,18.00
2017-08-17T05:43:59.745Z,18.01
2017-08-17T05:46:27.333Z,18.01
2017-08-17T05:48:54.940Z,18.02
2017-08-17T05:51:22.916Z,18.00
2017-08-17T05:53:51.102Z,18.04
2017-08-17T05:56:18.729Z,18.08
2017-08-17T05:58:46.331Z,18.16
2017-08-17T06:01:13.965Z,18.24
2017-08-17T06:03:41.561Z,18.31
2017-08-17T06:06:09.201Z,18.34
2017-08-17T06:08:36.924Z,18.34
2017-08-17T06:11:04.603Z,18.41
2017-08-17T06:13:32.193Z,18.51
2017-08-17T06:15:59.806Z,18.62
2017-08-17T06:18:27.424Z,18.71
2017-08-17T06:20:55.054Z,18.81
2017-08-17T06:23:22.741Z,18.92
2017-08-17T06:25:50.352Z,19.01
2017-08-17T06:28:17.948Z,19.07
2017-08-17T06:30:45.565Z,19.17
2017-08-17T06:33:13.162Z,19.18
2017-08-17T06:35:40.793Z,19.27
2017-08-17T06:38:08.380Z,19.32
2017-08-17T06:40:36.013Z,19.35
2017-08-17T06:43:03.635Z,19.41
2017-08-17T06:45:31.433Z,19.48
2017-08-17T06:47:59.003Z,19.59
2017-08-17T06:50:26.629Z,19.67
2017-08-17T06:52:54.242Z,19.72
2017-08-17T06:55:21.884Z,19.79
2017-08-17T06:57:49.480Z,19.87
2017-08-17T07:00:17.118Z,19.92
2017-08-17T07:02:44.773Z,19.97
2017-08-17T07:05:12.426Z,20.03
2017-08-17T07:07:40.038Z,20.13
2017-08-17T07:10:07.690Z,20.23
2017-08-17T07:12:35.372Z,20.29
2017-08-17T07:15:02.985Z,20.36
2017-08-17T07:17:30.585Z,20.40
2017-08-17T07:19:58.182Z,20.45
2017-08-17T07:22:25.808Z,20.51
2017-08-17T07:24:53.432Z,20.58
2017-08-17T07:27:21.070Z,20.65
2017-08-17T07:29:48.682Z,20.69
2017-08-17T07:32:16.262Z,20.71
2017-08-17T07:34:43.864Z,20.79
2017-08-17T07:37:11.462Z,20.95
2017-08-17T07:39:39.090Z,21.02
2017-08-17T07:42:06.697Z,21.09
2017-08-17T07:44:34.413Z,21.23
2017-08-17T07:47:02.021Z,21.27
2017-08-17T07:49:29.630Z,21.31
2017-08-17T07:51:58.501Z,21.40
2017-08-17T07:54:26.109Z,21.46
2017-08-17T07:56:53.686Z,21.50
2017-08-17T07:59:21.285Z,21.61
2017-08-17T08:01:48.896Z,21.68
2017-08-17T08:04:16.526Z,21.83
2017-08-17T08:06:44.125Z,22.01
2017-08-17T08:09:11.746Z,22.11
2017-08-17T08:11:39.338Z,22.06
2017-08-17T08:14:06.952Z,22.04
2017-08-17T08:16:34.543Z,22.02
2017-08-17T08:19:02.143Z,21.92
2017-08-17T08:21:29.720Z,21.88
2017-08-17T08:23:57.753Z,21.85
2017-08-17T08:26:25.439Z,21.85
2017-08-17T08:28:53.049Z,21.89
2017-08-17T08:31:20.767Z,22.02
2017-08-17T08:33:48.517Z,22.11
2017-08-17T08:36:16.113Z,22.20
2017-08-17T08:38:43.799Z,22.31
2017-08-17T08:41:11.436Z,22.40
2017-08-17T08:43:39.022Z,22.52
2017-08-17T08:46:06.648Z,22.58
2017-08-17T08:48:34.261Z,22.66
2017-08-17T08:51:01.883Z,22.72
2017-08-17T08:53:29.459Z,22.80
2017-08-17T08:55:57.214Z,22.97
2017-08-17T08:58:24.874Z,23.06
2017-08-17T09:00:52.536Z,23.12
2017-08-17T09:03:20.133Z,23.21
2017-08-17T09:05:48.111Z,23.26
2017-08-17T09:08:15.721Z,23.34
2017-08-17T09:10:43.332Z,23.41
2017-08-17T09:13:10.955Z,23.47
2017-08-17T09:15:38.636Z,23.57
2017-08-17T09:18:06.281Z,23.64
2017-08-17T09:20:33.949Z,23.69
2017-08-17T09:23:01.617Z,23.68
2017-08-17T09:25:29.237Z,23.73
2017-08-17T09:27:57.157Z,23.73
2017-08-17T09:30:24.764Z,23.76
2017-08-17T09:32:52.360Z,23.83
2017-08-17T09:35:19.989Z,23.96
2017-08-17T09:37:47.595Z,24.00
2017-08-17T09:40:15.209Z,24.02
2017-08-17T09:42:42.837Z,24.17
2017-08-17T09:45:10.432Z,24.28
2017-08-17T09:47:38.021Z,24.39
2017-08-17T09:50:05.708Z,24.54
2017-08-17T09:52:33.314Z,24.63
2017-08-17T09:55:01.014Z,24.72
2017-08-17T09:57:28.705Z,24.71
2017-08-17T09:59:56.557Z,24.79
2017-08-17T10:02:24.172Z,24.84
2017-08-17T10:04:51.888Z,24.92
2017-08-17T10:07:19.481Z,24.99
2017-08-17T10:09:47.152Z,24.99
2017-08-17T10:12:14.822Z,25.03
2017-08-17T10:14:42.713Z,25.12
2017-08-17T10:17:10.317Z,25.23
2017-08-17T10:19:37.970Z,25.26
2017-08-17T10:22:05.563Z,25.17
2017-08-17T10:24:33.403Z,25.28
2017-08-17T10:27:01.011Z,25.48
2017-08-17T10:29:28.628Z,25.63
2017-08-17T10:31:56.233Z,25.75
2017-08-17T10:34:23.857Z,25.79
2017-08-17T10:36:51.461Z,25.81
2017-08-17T10:39:19.162Z,25.94
2017-08-17T10:41:46.764Z,25.96
2017-08-17T10:44:14.373Z,25.87
2017-08-17T10:46:41.958Z,25.88
2017-08-17T10:49:09.575Z,25.82
2017-08-17T10:51:37.175Z,25.86
2017-08-17T10:54:04.756Z,26.03
2017-08-17T10:56:32.596Z,26.18
2017-08-17T10:59:00.254Z,26.32
2017-08-17T11:01:28.030Z,26.29
2017-08-17T11:03:55.640Z,26.35
2017-08-17T11:06:23.262Z,26.41
2017-08-17T11:08:50.839Z,26.47
2017-08-17T11:11:19.044Z,26.64
2017-08-17T11:13:46.650Z,26.82
2017-08-17T11:16:14.367Z,26.89
2017-08-17T11:18:41.978Z,26.91
2017-08-17T11:21:09.587Z,26.87
2017-08-17T11:23:37.211Z,26.71
2017-08-17T11:26:04.840Z,26.66
2017-08-17T11:28:32.460Z,26.78
2017-08-17T11:31:00.058Z,26.74
2017-08-17T11:33:27.666Z,26.69
2017-08-17T11:35:55.279Z,26.81
2017-08-17T11:38:22.899Z,26.90
2017-08-17T11:40:50.517Z,27.00
2017-08-17T11:43:18.391Z,27.19
2017-08-17T11:45:46.024Z,27.21
2017-08-17T11:48:14.235Z,27.11
2017-08-17T11:50:41.860Z,27.14
2017-08-17T11:53:09.454Z,27.25
2017-08-17T11:55:37.070Z,27.35
2017-08-17T11:58:04.689Z,27.44
2017-08-17T12:00:32.317Z,27.50
2017-08-17T12:02:59.977Z,27.53
2017-08-17T12:05:27.767Z,27.62
2017-08-17T12:07:55.511Z,27.58
2017-08-17T12:10:23.131Z,27.52
2017-08-17T12:12:50.989Z,27.59
2017-08-17T12:15:18.644Z,27.71
2017-08-17T12:17:46.283Z,27.91
2017-08-17T12:20:13.897Z,27.93
2017-08-17T12:22:41.466Z,27.90
2017-08-17T12:25:09.072Z,27.80
2017-08-17T12:27:36.712Z,27.82
2017-08-17T12:30:04.336Z,27.77
2017-08-17T12:32:32.004Z,27.78
2017-08-17T12:34:59.625Z,27.68
2017-08-17T12:37:27.300Z,27.66
2017-08-17T12:39:54.926Z,27.79
2017-08-17T12:42:22.623Z,27.85
2017-08-17T12:44:50.221Z,27.97
2017-08-17T12:47:17.803Z,28.11
2017-08-17T12:49:45.803Z,28.12
2017-08-17T12:52:13.424Z,28.21
2017-08-17T12:54:41.173Z,28.31
2017-08-17T12:57:08.861Z,28.32
2017-08-17T12:59:36.545Z,28.17
2017-08-17T13:02:04.161Z,28.05
2017-08-17T13:04:31.760Z,27.90
2017-08-17T13:06:59.359Z,27.86
2017-08-17T13:09:27.039Z,28.02
2017-08-17T13:11:54.642Z,28.20
2017-08-17T13:14:22.275Z,28.34
2017-08-17T13:16:49.934Z,28.33
2017-08-17T13:19:17.575Z,28.35
2017-08-17T13:21:45.293Z,28.42
2017-08-17T13:24:12.910Z,28.44
2017-08-17T13:26:40.501Z,28.50
2017-08-17T13:29:08.158Z,28.49
2017-08-17T13:31:35.878Z,28.53
2017-08-17T13:34:03.556Z,28.60
2017-08-17T13:36:31.224Z,28.71
2017-08-17T13:38:58.841Z,28.82
2017-08-17T13:41:26.437Z,28.89
2017-08-17T13:43:54.144Z,28.74
2017-08-17T13:46:21.756Z,28.61
2017-08-17T13:48:49.703Z,28.62
2017-08-17T13:51:17.382Z,28.68
2017-08-17T13:53:45.021Z,28.75
2017-08-17T13:56:12.660Z,28.85
2017-08-17T13:58:40.321Z,28.95
2017-08-17T14:01:07.933Z,29.01
2017-08-17T14:03:35.672Z,28.93
2017-08-17T14:06:03.297Z,28.91
2017-08-17T14:08:30.902Z,28.89
2017-08-17T14:10:58.636Z,28.83
2017-08-17T14:13:26.236Z,28.78
2017-08-17T14:15:53.870Z,28.76
2017-08-17T14:18:21.524Z,28.60
2017-08-17T14:20:49.148Z,28.56
2017-08-17T14:23:16.752Z,28.58
2017-08-17T14:25:44.365Z,28.63
2017-08-17T14:28:11.958Z,28.67
2017-08-17T14:30:39.673Z,28.66
2017-08-17T14:33:07.438Z,28.61
2017-08-17T14:35:35.048Z,28.57
2017-08-17T14:38:02.662Z,28.54
2017-08-17T14:40:30.285Z,28.44
2017-08-17T14:42:57.878Z,28.39
2017-08-17T14:45:55.773Z,28.43
2017-08-17T14:48:23.379Z,28.49
2017-08-17T14:50:51.277Z,28.57
2017-08-17T14:53:18.913Z,28.74
2017-08-17T14:55:46.505Z,28.93
2017-08-17T14:58:14.139Z,29.09
2017-08-17T15:00:41.733Z,29.18
2017-08-17T15:03:09.335Z,29.35
2017-08-17T15:05:36.921Z,29.30
2017-08-17T15:08:04.558Z,29.25
2017-08-17T15:10:32.146Z,29.15
2017-08-17T15:13:03.587Z,29.10
2017-08-17T15:15:31.180Z,29.05
2017-08-17T15:17:58.802Z,29.03
2017-08-17T15:20:29.845Z,28.96
2017-08-17T15:23:01.308Z,28.94
2017-08-17T15:25:28.912Z,28.97
2017-08-17T15:27:56.496Z,29.07
2017-08-17T15:30:24.106Z,29.30
2017-08-17T15:32:51.687Z,29.37
2017-08-17T15:35:19.347Z,29.58
2017-08-17T15:37:46.953Z,29.74
2017-08-17T15:40:14.566Z,30.16
2017-08-17T15:42:42.166Z,30.42
2017-08-17T15:45:10.068Z,30.52
2017-08-17T15:47:37.682Z,30.81
2017-08-17T15:50:05.317Z,31.26
2017-08-17T15:52:32.951Z,31.54
2017-08-17T15:55:00.570Z,31.66
2017-08-17T15:57:28.194Z,31.45
2017-08-17T15:59:55.766Z,31.48
2017-08-17T16:02:23.406Z,31.61
2017-08-17T16:04:51.000Z,31.43
2017-08-17T16:07:18.627Z,30.92
2017-08-17T16:09:46.218Z,30.40
2017-08-17T16:12:13.845Z,30.13
2017-08-17T16:14:41.451Z,29.81
2017-08-17T16:17:09.074Z,29.50
2017-08-17T16:19:36.713Z,29.33
2017-08-17T16:22:04.314Z,29.22
2017-08-17T16:24:31.902Z,28.98
2017-08-17T16:27:00.872Z,28.88
2017-08-17T16:29:28.469Z,28.95
2017-08-17T16:31:56.116Z,29.07
2017-08-17T16:34:23.752Z,29.09
2017-08-17T16:36:51.620Z,29.07
2017-08-17T16:39:19.224Z,29.03
2017-08-17T16:41:46.816Z,28.92
2017-08-17T16:44:14.424Z,28.74
2017-08-17T16:46:42.015Z,28.54
2017-08-17T16:49:09.625Z,28.38
2017-08-17T16:51:37.249Z,28.32
2017-08-17T16:54:04.853Z,28.24
2017-08-17T16:56:32.460Z,28.05
2017-08-17T16:59:00.089Z,27.94
2017-08-17T17:01:27.723Z,27.87
2017-08-17T17:03:55.381Z,27.81
2017-08-17T17:06:22.977Z,27.75
2017-08-17T17:08:50.620Z,27.67
2017-08-17T17:11:18.283Z,27.60
2017-08-17T17:13:45.939Z,27.53
2017-08-17T17:16:13.580Z,27.46
2017-08-17T17:18:41.223Z,27.40
2017-08-17T17:21:08.864Z,27.32
2017-08-17T17:23:36.513Z,27.26
2017-08-17T17:26:04.123Z,27.17
2017-08-17T17:28:31.730Z,27.09
2017-08-17T17:30:59.369Z,27.04
2017-08-17T17:33:27.017Z,26.99
2017-08-17T17:35:54.635Z,26.90
2017-08-17T17:38:22.268Z,26.81
2017-08-17T17:40:49.884Z,26.71
2017-08-17T17:43:17.519Z,26.62
2017-08-17T17:45:45.144Z,26.56
2017-08-17T17:48:12.823Z,26.48
2017-08-17T17:50:40.428Z,26.39
2017-08-17T17:53:08.109Z,26.32
2017-08-17T17:55:35.757Z,26.25
2017-08-17T17:58:03.745Z,26.19
2017-08-17T18:00:31.330Z,26.10
2017-08-17T18:02:58.913Z,26.04
2017-08-17T18:05:26.553Z,25.97
2017-08-17T18:07:54.169Z,25.94
2017-08-17T18:10:21.776Z,25.88
2017-08-17T18:12:49.377Z,25.80
2017-08-17T18:15:17.011Z,25.71
2017-08-17T18:17:44.618Z,25.66
2017-08-17T18:20:12.268Z,25.61
2017-08-17T18:22:39.861Z,25.56
2017-08-17T18:25:07.720Z,25.50
2017-08-17T18:27:35.351Z,25.45
2017-08-17T18:30:02.975Z,25.37
2017-08-17T18:32:30.622Z,25.31
2017-08-17T18:34:58.201Z,25.24
2017-08-17T18:37:25.808Z,25.18
2017-08-17T18:39:53.401Z,25.12
2017-08-17T18:42:21.031Z,25.06
2017-08-17T18:44:48.643Z,24.99
2017-08-17T18:47:16.527Z,24.94
2017-08-17T18:49:44.147Z,24.87
2017-08-17T18:52:11.711Z,24.80
2017-08-17T18:54:39.407Z,24.76
2017-08-17T18:57:07.044Z,24.73
2017-08-17T18:59:34.813Z,24.72
2017-08-17T19:02:02.644Z,24.66
2017-08-17T19:04:30.291Z,24.60
2017-08-17T19:06:57.937Z,24.56
2017-08-17T19:09:25.796Z,24.46
2017-08-17T19:11:53.409Z,24.39
2017-08-17T19:14:20.973Z,24.33
2017-08-17T19:16:48.598Z,24.26
2017-08-17T19:19:16.169Z,24.18
2017-08-17T19:21:43.824Z,24.11
2017-08-17T19:24:11.443Z,24.05
2017-08-17T19:26:39.051Z,24.00
2017-08-17T19:29:06.662Z,23.94
2017-08-17T19:31:34.292Z,23.90
2017-08-17T19:34:01.887Z,23.85
2017-08-17T19:36:29.785Z,23.79
2017-08-17T19:38:57.398Z,23.77
2017-08-17T19:41:24.993Z,23.72
2017-08-17T19:43:52.827Z,23.66
2017-08-17T19:46:20.444Z,23.62
2017-08-17T19:48:48.064Z,23.60
2017-08-17T19:51:15.660Z,23.56
2017-08-17T19:53:43.559Z,23.55
2017-08-17T19:56:11.198Z,23.50
2017-08-17T19:58:38.800Z,23.46
2017-08-17T20:01:06.415Z,23.40
2017-08-17T20:03:34.046Z,23.35
2017-08-17T20:06:01.687Z,23.23
2017-08-17T20:08:29.278Z,23.18
2017-08-17T20:10:56.901Z,23.14
2017-08-17T20:13:24.622Z,23.11
2017-08-17T20:15:52.260Z,23.09
2017-08-17T20:18:19.939Z,23.04
2017-08-17T20:20:47.851Z,23.01
2017-08-17T20:23:15.510Z,22.99
2017-08-17T20:25:43.164Z,23.02
2017-08-17T20:28:10.869Z,23.03
2017-08-17T20:30:38.527Z,23.02
2017-08-17T20:33:06.163Z,23.00
2017-08-17T20:35:33.783Z,23.00
2017-08-17T20:38:01.427Z,22.95
2017-08-17T20:40:29.084Z,22.93
2017-08-17T20:42:56.820Z,22.89
2017-08-17T20:45:24.437Z,22.81
2017-08-17T20:47:52.116Z,22.77
2017-08-17T20:50:19.730Z,22.73
2017-08-17T20:52:48.060Z,22.68
2017-08-17T20:55:15.662Z,22.67
2017-08-17T20:57:43.266Z,22.68
2017-08-17T21:00:10.987Z,22.65
2017-08-17T21:02:38.615Z,22.62
2017-08-17T21:05:06.290Z,22.61
2017-08-17T21:07:33.884Z,22.61
2017-08-17T21:10:01.496Z,22.60
2017-08-17T21:12:29.178Z,22.59
2017-08-17T21:14:56.866Z,22.57
2017-08-17T21:17:24.595Z,22.57
2017-08-17T21:19:52.647Z,22.57
2017-08-17T21:22:20.279Z,22.57
2017-08-17T21:24:47.893Z,22.56
2017-08-17T21:27:15.511Z,22.55
2017-08-17T21:29:43.192Z,22.52
2017-08-17T21:32:14.371Z,22.50
2017-08-17T21:34:41.995Z,22.49
2017-08-17T21:37:09.622Z,22.48
2017-08-17T21:39:37.243Z,22.48
2017-08-17T21:42:04.874Z,22.47
2017-08-17T21:44:32.496Z,22.44
2017-08-17T21:47:00.142Z,22.41
2017-08-17T21:49:27.757Z,22.38
2017-08-17T21:51:55.710Z,22.37
2017-08-17T21:54:23.423Z,22.37
2017-08-17T21:56:51.095Z,22.36
2017-08-17T21:59:18.842Z,22.34
2017-08-17T22:01:46.430Z,22.28
2017-08-17T22:04:14.045Z,22.27
2017-08-17T22:06:41.656Z,22.22
2017-08-17T22:09:09.278Z,22.13
2017-08-17T22:11:36.894Z,22.07
2017-08-17T22:14:04.520Z,22.07
2017-08-17T22:16:32.225Z,22.04
2017-08-17T22:19:00.165Z,22.03
2017-08-17T22:21:27.868Z,22.02
2017-08-17T22:23:55.569Z,22.03
2017-08-17T22:26:23.190Z,22.00
2017-08-17T22:28:50.800Z,21.98
2017-08-17T22:31:18.417Z,21.96
2017-08-17T22:33:46.089Z,21.98
2017-08-17T22:36:13.770Z,22.00
2017-08-17T22:38:41.447Z,22.01
2017-08-17T22:41:09.346Z,22.00
2017-08-17T22:43:37.013Z,22.00
2017-08-17T22:46:04.637Z,21.99
2017-08-17T22:48:32.342Z,21.97
2017-08-17T22:51:00.005Z,21.93
2017-08-17T22:53:27.628Z,21.92
2017-08-17T22:55:55.222Z,21.94
2017-08-17T22:58:22.835Z,21.92
2017-08-17T23:00:50.452Z,21.88
2017-08-17T23:03:18.353Z,21.79
2017-08-17T23:05:45.939Z,21.60
2017-08-17T23:08:13.534Z,21.55
2017-08-17T23:10:41.187Z,21.50
2017-08-17T23:13:08.790Z,21.53
2017-08-17T23:15:36.424Z,21.52
2017-08-17T23:18:03.996Z,21.50
2017-08-17T23:20:31.625Z,21.50
2017-08-17T23:22:59.236Z,21.50
2017-08-17T23:25:27.105Z,21.50
2017-08-17T23:27:54.730Z,21.48
2017-08-17T23:30:22.326Z,21.47
2017-08-17T23:32:49.930Z,21.43
2017-08-17T23:35:17.539Z,21.42
2017-08-17T23:37:45.162Z,21.38
2017-08-17T23:40:12.758Z,21.34
2017-08-17T23:42:40.384Z,21.29
2017-08-17T23:45:08.037Z,21.27
2017-08-17T23:47:35.655Z,21.25
2017-08-17T23:50:03.266Z,21.23
2017-08-17T23:52:30.900Z,21.20
2017-08-17T23:54:58.487Z,21.16
2017-08-17T23:57:26.400Z,21.16
2017-08-17T23:59:54.009Z,21.12
